createdAt,value
2023-04-09T00:02:36.473Z,99752.55
2023-04-09T00:05:10.097Z,99752.77
2023-04-09T00:07:54.123Z,99747.67
2023-04-09T00:10:37.420Z,99748.79
2023-04-09T00:16:26.219Z,99753.21
2023-04-09T00:19:19.113Z,99759.23
2023-04-09T00:22:12.237Z,99757.17
2023-04-09T00:25:05.291Z,99758.83
2023-04-09T00:27:47.160Z,99759.56
2023-04-09T00:30:40.063Z,99755.02
2023-04-09T00:33:22.833Z,99754.39
2023-04-09T00:36:15.656Z,99752.48
2023-04-09T00:38:48.805Z,99752.76
2023-04-09T00:41:22.338Z,99754.91
2023-04-09T00:44:00.401Z,99751.83
2023-04-09T00:46:34.323Z,99750.98
2023-04-09T00:49:07.119Z,99749.97
2023-04-09T00:51:40.722Z,99746.15
2023-04-09T00:54:13.997Z,99747.80
2023-04-09T00:56:46.987Z,99750.02
2023-04-09T00:59:19.468Z,99747.27
2023-04-09T01:01:54.839Z,99747.91
2023-04-09T01:04:29.828Z,99749.26
2023-04-09T01:07:12.645Z,99748.87
2023-04-09T01:09:56.699Z,99745.20
2023-04-09T01:12:38.239Z,99741.56
2023-04-09T01:15:16.523Z,99742.73
2023-04-09T01:17:54.626Z,99742.92
2023-04-09T01:20:38.745Z,99746.13
2023-04-09T01:23:20.841Z,99753.57
2023-04-09T01:26:06.058Z,99752.15
2023-04-09T01:28:54.737Z,99756.50
2023-04-09T01:31:31.092Z,99753.55
2023-04-09T01:34:05.106Z,99754.05
2023-04-09T01:36:43.458Z,99751.87
2023-04-09T01:39:17.990Z,99752.09
2023-04-09T01:41:54.353Z,99752.89
2023-04-09T01:44:30.955Z,99758.06
2023-04-09T01:47:07.219Z,99758.05
2023-04-09T01:49:44.703Z,99757.72
2023-04-09T01:52:17.504Z,99758.21
2023-04-09T01:54:53.036Z,99756.64
2023-04-09T01:57:25.804Z,99756.68
2023-04-09T02:00:01.108Z,99759.87
2023-04-09T02:02:48.464Z,99757.77
2023-04-09T02:05:24.264Z,99759.96
2023-04-09T02:08:13.977Z,99759.94
2023-04-09T02:10:57.162Z,99762.48
2023-04-09T02:13:34.940Z,99767.87
2023-04-09T02:16:09.874Z,99761.98
2023-04-09T02:18:54.586Z,99760.36
2023-04-09T02:21:28.717Z,99762.96
2023-04-09T02:24:12.362Z,99761.03
2023-04-09T02:26:47.936Z,99758.70
2023-04-09T02:29:20.692Z,99757.80
2023-04-09T02:31:53.696Z,99756.01
2023-04-09T02:34:26.626Z,99756.48
2023-04-09T02:37:02.113Z,99754.03
2023-04-09T02:39:34.643Z,99752.96
2023-04-09T02:42:08.438Z,99751.15
2023-04-09T02:44:41.096Z,99752.31
2023-04-09T02:47:14.068Z,99757.36
2023-04-09T02:49:49.645Z,99758.79
2023-04-09T02:52:33.505Z,99757.83
2023-04-09T02:55:16.333Z,99758.71
2023-04-09T02:58:09.282Z,99759.58
2023-04-09T03:00:52.051Z,99761.02
2023-04-09T03:03:31.066Z,99764.01
2023-04-09T03:06:08.683Z,99762.92
2023-04-09T03:08:44.477Z,99761.69
2023-04-09T03:11:17.435Z,99763.88
2023-04-09T03:13:53.081Z,99769.27
2023-04-09T03:16:27.748Z,99770.73
2023-04-09T03:19:02.977Z,99774.27
2023-04-09T03:21:35.733Z,99769.39
2023-04-09T03:24:09.195Z,99767.48
2023-04-09T03:26:42.216Z,99770.20
2023-04-09T03:29:17.474Z,99768.33
2023-04-09T03:32:01.000Z,99768.16
2023-04-09T03:34:33.625Z,99767.15
2023-04-09T03:37:13.792Z,99763.66
2023-04-09T03:39:47.475Z,99761.77
2023-04-09T03:42:20.368Z,99758.36
2023-04-09T03:44:57.962Z,99760.30
2023-04-09T03:47:38.217Z,99760.25
2023-04-09T03:50:21.697Z,99760.19
2023-04-09T03:52:58.781Z,99757.59
2023-04-09T03:55:31.542Z,99760.51
2023-04-09T03:58:05.294Z,99759.12
2023-04-09T04:00:41.625Z,99759.16
2023-04-09T04:03:27.682Z,99761.15
2023-04-09T04:06:22.043Z,99759.64
2023-04-09T04:09:00.946Z,99763.33
2023-04-09T04:11:40.827Z,99759.70
2023-04-09T04:14:16.868Z,99759.69
2023-04-09T04:16:54.253Z,99765.45
2023-04-09T04:19:46.918Z,99769.85
2023-04-09T04:22:23.307Z,99770.20
2023-04-09T04:25:01.365Z,99772.34
2023-04-09T04:27:37.816Z,99775.34
2023-04-09T04:30:21.756Z,99774.45
2023-04-09T04:33:02.977Z,99776.94
2023-04-09T04:35:41.198Z,99783.91
2023-04-09T04:38:17.728Z,99782.52
2023-04-09T04:41:01.358Z,99786.41
2023-04-09T04:43:45.127Z,99788.95
2023-04-09T04:46:24.150Z,99786.83
2023-04-09T04:48:59.649Z,99789.60
2023-04-09T04:51:33.548Z,99786.23
2023-04-09T04:54:10.601Z,99791.67
2023-04-09T04:56:46.856Z,99792.60
2023-04-09T04:59:44.038Z,99788.46
2023-04-09T05:02:19.378Z,99789.34
2023-04-09T05:05:12.549Z,99788.10
2023-04-09T05:07:53.100Z,99793.87
2023-04-09T05:10:46.975Z,99794.20
2023-04-09T05:13:30.148Z,99789.91
2023-04-09T05:16:03.835Z,99788.98
2023-04-09T05:18:37.410Z,99789.52
2023-04-09T05:21:11.713Z,99789.33
2023-04-09T05:23:46.494Z,99786.77
2023-04-09T05:26:19.066Z,99792.91
2023-04-09T05:28:58.689Z,99794.74
2023-04-09T05:31:31.372Z,99798.38
2023-04-09T05:34:08.950Z,99799.44
2023-04-09T05:36:50.463Z,99798.67
2023-04-09T05:39:26.686Z,99798.70
2023-04-09T05:42:19.427Z,99803.40
2023-04-09T05:45:18.456Z,99805.66
2023-04-09T05:47:54.268Z,99806.85
2023-04-09T05:50:31.831Z,99802.20
2023-04-09T05:53:09.422Z,99809.60
2023-04-09T05:55:44.840Z,99811.13
2023-04-09T05:58:29.610Z,99809.21
2023-04-09T06:01:10.335Z,99810.34
2023-04-09T06:03:46.869Z,99810.87
2023-04-09T06:06:30.412Z,99812.55
2023-04-09T06:09:04.712Z,99822.25
2023-04-09T06:11:43.513Z,99823.45
2023-04-09T06:14:18.499Z,99820.73
2023-04-09T06:16:51.019Z,99825.40
2023-04-09T06:19:25.806Z,99825.03
2023-04-09T06:21:58.622Z,99826.83
2023-04-09T06:24:32.055Z,99828.05
2023-04-09T06:27:05.009Z,99826.59
2023-04-09T06:29:37.682Z,99827.15
2023-04-09T06:32:12.143Z,99831.02
2023-04-09T06:34:46.874Z,99832.70
2023-04-09T06:37:21.669Z,99833.91
2023-04-09T06:40:00.827Z,99833.98
2023-04-09T06:42:35.422Z,99833.79
2023-04-09T06:45:17.227Z,99837.66
2023-04-09T06:47:50.138Z,99837.21
2023-04-09T06:50:23.039Z,99837.41
2023-04-09T06:52:57.783Z,99835.90
2023-04-09T06:55:34.144Z,99836.40
2023-04-09T06:58:07.189Z,99837.70
2023-04-09T07:00:42.873Z,99843.19
2023-04-09T07:03:16.119Z,99842.54
2023-04-09T07:05:52.219Z,99848.69
2023-04-09T07:08:25.113Z,99851.62
2023-04-09T07:10:58.109Z,99854.02
2023-04-09T07:13:31.405Z,99857.67
2023-04-09T07:16:09.671Z,99861.10
2023-04-09T07:18:42.131Z,99861.30
2023-04-09T07:21:15.278Z,99861.23
2023-04-09T07:23:48.181Z,99857.55
2023-04-09T07:26:20.894Z,99858.89
2023-04-09T07:28:56.256Z,99861.59
2023-04-09T07:31:35.310Z,99862.38
2023-04-09T07:34:08.998Z,99862.80
2023-04-09T07:36:44.291Z,99863.76
2023-04-09T07:39:21.254Z,99866.98
2023-04-09T07:41:54.193Z,99867.15
2023-04-09T07:44:27.200Z,99868.90
2023-04-09T07:47:02.670Z,99871.70
2023-04-09T07:49:40.625Z,99869.98
2023-04-09T07:52:13.286Z,99874.39
2023-04-09T07:54:45.828Z,99870.85
2023-04-09T07:57:20.898Z,99870.85
2023-04-09T07:59:54.211Z,99870.75
2023-04-09T08:02:35.222Z,99865.20
2023-04-09T08:05:12.294Z,99868.36
2023-04-09T08:07:44.752Z,99870.45
2023-04-09T08:10:17.203Z,99872.23
2023-04-09T08:12:51.262Z,99869.27
2023-04-09T08:15:24.263Z,99870.13
2023-04-09T08:17:59.720Z,99867.30
2023-04-09T08:20:45.735Z,99867.29
2023-04-09T08:23:28.162Z,99865.67
2023-04-09T08:26:00.722Z,99863.15
2023-04-09T08:28:43.403Z,99862.53
2023-04-09T08:31:26.609Z,99861.38
2023-04-09T08:34:10.724Z,99864.18
2023-04-09T08:36:49.986Z,99865.33
2023-04-09T08:39:37.501Z,99868.59
2023-04-09T08:42:16.261Z,99866.31
2023-04-09T08:44:52.024Z,99868.09
2023-04-09T08:47:30.560Z,99863.13
2023-04-09T08:50:12.872Z,99866.77
2023-04-09T08:52:50.649Z,99864.95
2023-04-09T08:55:31.444Z,99862.55
2023-04-09T08:58:15.604Z,99855.64
2023-04-09T09:00:51.577Z,99857.80
2023-04-09T09:03:53.390Z,99859.08
2023-04-09T09:06:32.881Z,99853.91
2023-04-09T09:09:17.096Z,99854.18
2023-04-09T09:12:11.565Z,99853.95
2023-04-09T09:14:44.325Z,99852.71
2023-04-09T09:17:20.286Z,99850.06
2023-04-09T09:19:56.913Z,99848.44
2023-04-09T09:22:57.867Z,99848.50
2023-04-09T09:25:51.313Z,99848.73
2023-04-09T09:28:37.969Z,99847.41
2023-04-09T09:31:13.449Z,99846.37
2023-04-09T09:34:01.337Z,99843.57
2023-04-09T09:36:37.633Z,99841.24
2023-04-09T09:39:12.332Z,99840.20
2023-04-09T09:41:45.957Z,99839.92
2023-04-09T09:44:34.034Z,99837.48
2023-04-09T09:47:15.623Z,99837.77
2023-04-09T09:49:58.363Z,99837.95
2023-04-09T09:52:44.629Z,99836.41
2023-04-09T09:55:22.637Z,99838.35
2023-04-09T09:57:57.551Z,99832.50
2023-04-09T10:00:51.824Z,99832.68
2023-04-09T10:03:30.857Z,99829.20
2023-04-09T10:06:04.881Z,99826.89
2023-04-09T10:08:44.170Z,99829.03
2023-04-09T10:11:16.878Z,99826.36
2023-04-09T10:13:56.984Z,99821.71
2023-04-09T10:19:20.827Z,99823.77
2023-04-09T10:22:04.773Z,99818.45
2023-04-09T10:24:42.308Z,99818.05
2023-04-09T10:27:17.707Z,99815.86
2023-04-09T10:29:52.181Z,99816.38
2023-04-09T10:32:28.443Z,99815.43
2023-04-09T10:35:07.180Z,99807.81
2023-04-09T10:37:39.941Z,99806.44
2023-04-09T10:40:22.726Z,99804.20
2023-04-09T10:42:57.082Z,99803.31
2023-04-09T10:45:42.826Z,99797.87
2023-04-09T10:48:22.942Z,99800.34
2023-04-09T10:50:58.148Z,99796.92
2023-04-09T10:53:42.285Z,99791.78
2023-04-09T10:56:19.190Z,99792.96
2023-04-09T10:58:51.963Z,99791.21
2023-04-09T11:01:28.806Z,99789.67
2023-04-09T11:04:22.158Z,99787.66
2023-04-09T11:06:58.017Z,99790.66
2023-04-09T11:09:30.522Z,99787.89
2023-04-09T11:12:03.796Z,99789.85
2023-04-09T11:14:39.255Z,99788.08
2023-04-09T11:17:22.891Z,99786.14
2023-04-09T11:20:02.629Z,99788.94
2023-04-09T11:22:57.556Z,99787.36
2023-04-09T11:25:40.197Z,99781.41
2023-04-09T11:28:16.928Z,99781.74
2023-04-09T11:30:53.501Z,99783.86
2023-04-09T11:33:35.662Z,99786.00
2023-04-09T11:36:09.547Z,99786.73
2023-04-09T11:38:45.536Z,99783.86
2023-04-09T11:41:18.159Z,99786.27
2023-04-09T11:43:54.908Z,99787.04
2023-04-09T11:46:28.017Z,99789.58
2023-04-09T11:49:04.030Z,99789.45
2023-04-09T11:51:39.753Z,99793.00
2023-04-09T11:54:15.572Z,99792.52
2023-04-09T11:56:55.971Z,99790.29
2023-04-09T11:59:32.848Z,99792.70
2023-04-09T12:02:20.683Z,99791.19
2023-04-09T12:05:06.489Z,99791.27
2023-04-09T12:07:42.323Z,99791.73
2023-04-09T12:10:27.883Z,99793.86
2023-04-09T12:13:05.010Z,99790.81
2023-04-09T12:15:41.291Z,99789.63
2023-04-09T12:18:17.646Z,99789.27
2023-04-09T12:20:53.314Z,99789.23
2023-04-09T12:23:26.128Z,99790.67
2023-04-09T12:26:00.859Z,99790.50
2023-04-09T12:28:35.050Z,99786.67
2023-04-09T12:31:17.749Z,99788.59
2023-04-09T12:33:52.916Z,99790.23
2023-04-09T12:36:26.597Z,99790.27
2023-04-09T12:38:59.807Z,99788.75
2023-04-09T12:41:32.774Z,99787.36
2023-04-09T12:44:15.618Z,99786.23
2023-04-09T12:46:48.523Z,99782.86
2023-04-09T12:49:31.245Z,99782.21
2023-04-09T12:52:07.102Z,99784.11
2023-04-09T12:54:40.522Z,99785.23
2023-04-09T12:57:13.105Z,99783.02
2023-04-09T12:59:49.360Z,99779.84
2023-04-09T13:02:23.238Z,99778.05
2023-04-09T13:04:55.680Z,99773.95
2023-04-09T13:07:31.049Z,99773.52
2023-04-09T13:10:06.144Z,99769.67
2023-04-09T13:12:48.989Z,99775.05
2023-04-09T13:15:22.128Z,99768.21
2023-04-09T13:17:54.779Z,99768.87
2023-04-09T13:20:27.529Z,99764.04
2023-04-09T13:23:01.609Z,99763.59
2023-04-09T13:25:34.091Z,99758.61
2023-04-09T13:28:07.328Z,99760.77
2023-04-09T13:30:39.890Z,99760.20
2023-04-09T13:33:15.745Z,99765.23
2023-04-09T13:35:48.475Z,99767.42
2023-04-09T13:38:21.177Z,99769.01
2023-04-09T13:40:56.425Z,99762.45
2023-04-09T13:43:29.510Z,99758.73
2023-04-09T13:46:08.508Z,99760.95
2023-04-09T13:48:41.434Z,99764.40
2023-04-09T13:51:14.186Z,99767.14
2023-04-09T13:53:48.318Z,99764.90
2023-04-09T13:56:22.070Z,99764.20
2023-04-09T13:59:14.970Z,99759.45
2023-04-09T14:01:57.621Z,99760.80
2023-04-09T14:04:50.549Z,99755.34
2023-04-09T14:07:33.356Z,99757.40
2023-04-09T14:10:19.644Z,99759.59
2023-04-09T14:12:55.665Z,99757.28
2023-04-09T14:15:28.356Z,99755.75
2023-04-09T14:18:01.053Z,99754.98
2023-04-09T14:20:54.462Z,99752.16
2023-04-09T14:23:28.621Z,99749.21
2023-04-09T14:26:04.794Z,99748.44
2023-04-09T14:28:41.943Z,99749.73
2023-04-09T14:31:26.144Z,99746.77
2023-04-09T14:33:59.645Z,99746.48
2023-04-09T14:36:32.360Z,99744.90
2023-04-09T14:39:09.555Z,99740.34
2023-04-09T14:41:45.505Z,99741.17
2023-04-09T14:44:21.203Z,99741.60
2023-04-09T14:46:55.102Z,99738.34
2023-04-09T14:49:28.121Z,99739.17
2023-04-09T14:52:03.000Z,99739.73
2023-04-09T14:54:35.853Z,99740.14
2023-04-09T14:57:08.797Z,99739.02
2023-04-09T14:59:41.538Z,99736.23
2023-04-09T15:02:17.752Z,99733.38
2023-04-09T15:04:52.927Z,99735.23
2023-04-09T15:07:28.510Z,99734.25
2023-04-09T15:10:01.215Z,99734.89
2023-04-09T15:12:35.581Z,99733.92
2023-04-09T15:15:11.462Z,99734.33
2023-04-09T15:17:46.682Z,99736.47
2023-04-09T15:20:22.801Z,99733.81
2023-04-09T15:22:56.016Z,99732.98
2023-04-09T15:25:32.813Z,99734.11
2023-04-09T15:28:06.536Z,99734.63
2023-04-09T15:30:39.335Z,99740.48
2023-04-09T15:33:15.605Z,99737.80
2023-04-09T15:35:52.410Z,99735.85
2023-04-09T15:38:25.253Z,99742.23
2023-04-09T15:40:58.820Z,99739.77
2023-04-09T15:43:31.771Z,99738.46
2023-04-09T15:46:13.545Z,99737.48
2023-04-09T15:48:46.665Z,99742.45
2023-04-09T15:51:19.367Z,99736.48
2023-04-09T15:53:55.168Z,99734.73
2023-04-09T15:56:27.495Z,99736.33
2023-04-09T15:59:05.356Z,99735.64
2023-04-09T16:01:38.109Z,99737.02
2023-04-09T16:04:10.779Z,99739.30
2023-04-09T16:06:43.590Z,99739.69
2023-04-09T16:09:15.907Z,99738.64
2023-04-09T16:11:48.486Z,99739.37
2023-04-09T16:14:21.308Z,99740.64
2023-04-09T16:16:54.011Z,99738.02
2023-04-09T16:19:26.803Z,99738.39
2023-04-09T16:21:59.662Z,99736.11
2023-04-09T16:24:33.531Z,99734.55
2023-04-09T16:27:09.410Z,99733.88
2023-04-09T16:29:42.455Z,99731.43
2023-04-09T16:32:15.186Z,99735.14
2023-04-09T16:34:56.636Z,99734.97
2023-04-09T16:37:29.745Z,99739.17
2023-04-09T16:40:04.942Z,99738.48
2023-04-09T16:42:40.937Z,99743.39
2023-04-09T16:45:20.550Z,99744.09
2023-04-09T16:47:56.413Z,99743.54
2023-04-09T16:50:31.940Z,99744.41
2023-04-09T16:53:05.061Z,99742.13
2023-04-09T16:55:48.172Z,99742.09
2023-04-09T16:58:23.965Z,99742.56
2023-04-09T17:00:57.568Z,99744.29
2023-04-09T17:03:30.314Z,99747.94
2023-04-09T17:06:07.082Z,99750.88
2023-04-09T17:08:40.038Z,99751.00
2023-04-09T17:11:17.501Z,99752.36
2023-04-09T17:13:50.538Z,99756.34
2023-04-09T17:16:23.804Z,99761.55
2023-04-09T17:18:59.780Z,99765.17
2023-04-09T17:21:32.678Z,99767.61
2023-04-09T17:24:09.000Z,99767.55
2023-04-09T17:26:41.863Z,99765.58
2023-04-09T17:29:14.388Z,99769.90
2023-04-09T17:31:48.886Z,99775.79
2023-04-09T17:34:24.265Z,99777.48
2023-04-09T17:37:00.261Z,99782.81
2023-04-09T17:39:37.418Z,99786.55
2023-04-09T17:42:11.853Z,99789.09
2023-04-09T17:44:46.222Z,99792.89
2023-04-09T17:47:19.352Z,99791.95
2023-04-09T17:49:53.324Z,99795.73
2023-04-09T17:52:29.226Z,99800.73
2023-04-09T17:55:23.532Z,99804.13
2023-04-09T17:58:11.590Z,99806.82
2023-04-09T18:01:07.726Z,99811.11
2023-04-09T18:03:52.660Z,99812.59
2023-04-09T18:06:29.368Z,99817.17
2023-04-09T18:09:22.483Z,99828.75
2023-04-09T18:12:00.100Z,99829.52
2023-04-09T18:14:53.039Z,99835.87
2023-04-09T18:17:45.931Z,99832.75
2023-04-09T18:20:26.412Z,99831.95
2023-04-09T18:22:59.079Z,99829.73
2023-04-09T18:25:31.529Z,99830.49
2023-04-09T18:28:07.724Z,99835.55
2023-04-09T18:30:43.591Z,99833.65
2023-04-09T18:33:18.994Z,99837.15
2023-04-09T18:36:12.481Z,99840.82
2023-04-09T18:39:06.649Z,99838.24
2023-04-09T18:41:59.722Z,99842.45
2023-04-09T18:44:52.816Z,99838.30
2023-04-09T18:47:34.828Z,99837.83
2023-04-09T18:50:09.639Z,99835.80
2023-04-09T18:52:52.083Z,99834.84
2023-04-09T18:55:24.300Z,99838.98
2023-04-09T18:57:57.522Z,99836.83
2023-04-09T19:00:37.456Z,99838.35
2023-04-09T19:03:31.121Z,99830.80
2023-04-09T19:06:27.963Z,99831.27
2023-04-09T19:09:20.941Z,99827.34
2023-04-09T19:12:04.967Z,99823.58
2023-04-09T19:14:38.092Z,99827.00
2023-04-09T19:17:13.466Z,99828.37
2023-04-09T19:19:49.444Z,99832.52
2023-04-09T19:22:25.323Z,99835.59
2023-04-09T19:24:59.603Z,99837.44
2023-04-09T19:27:54.458Z,99837.20
2023-04-09T19:30:50.993Z,99836.89
2023-04-09T19:33:34.754Z,99836.05
2023-04-09T19:36:18.268Z,99831.81
2023-04-09T19:38:56.368Z,99836.87
2023-04-09T19:41:49.019Z,99836.20
2023-04-09T19:44:42.351Z,99833.06
2023-04-09T19:47:17.929Z,99841.15
2023-04-09T19:49:59.737Z,99837.71
2023-04-09T19:52:33.212Z,99842.31
2023-04-09T19:55:19.134Z,99846.17
2023-04-09T19:58:06.637Z,99850.91
2023-04-09T20:00:42.020Z,99849.91
2023-04-09T20:03:23.090Z,99848.37
2023-04-09T20:05:55.801Z,99845.78
2023-04-09T20:08:28.829Z,99846.16
2023-04-09T20:11:22.652Z,99845.40
2023-04-09T20:14:06.302Z,99846.63
2023-04-09T20:16:39.257Z,99844.40
2023-04-09T20:19:11.906Z,99842.91
2023-04-09T20:21:53.022Z,99839.20
2023-04-09T20:24:28.779Z,99837.71
2023-04-09T20:27:23.627Z,99835.73
2023-04-09T20:29:59.134Z,99833.23
2023-04-09T20:32:31.645Z,99832.61
2023-04-09T20:35:09.662Z,99828.89
2023-04-09T20:37:44.800Z,99827.27
2023-04-09T20:40:17.654Z,99821.60
2023-04-09T20:43:00.585Z,99824.49
2023-04-09T20:45:43.170Z,99822.52
2023-04-09T20:48:19.025Z,99822.77
2023-04-09T20:51:09.446Z,99825.15
2023-04-09T20:53:42.289Z,99825.41
2023-04-09T20:56:26.588Z,99821.81
2023-04-09T20:58:59.809Z,99820.98
2023-04-09T21:01:33.448Z,99819.15
2023-04-09T21:04:06.751Z,99818.03
2023-04-09T21:06:50.834Z,99815.17
2023-04-09T21:09:24.735Z,99812.66
2023-04-09T21:12:07.898Z,99812.56
2023-04-09T21:14:42.735Z,99813.66
2023-04-09T21:17:20.330Z,99810.98
2023-04-09T21:20:02.999Z,99809.70
2023-04-09T21:22:38.553Z,99807.00
2023-04-09T21:25:13.780Z,99809.05
2023-04-09T21:27:59.489Z,99805.36
2023-04-09T21:30:32.871Z,99808.67
2023-04-09T21:33:09.994Z,99806.75
2023-04-09T21:35:54.660Z,99802.12
2023-04-09T21:38:47.407Z,99805.92
2023-04-09T21:41:19.880Z,99807.60
2023-04-09T21:43:52.553Z,99811.40
2023-04-09T21:46:25.234Z,99809.05
2023-04-09T21:49:05.976Z,99809.14
2023-04-09T21:51:39.916Z,99809.72
2023-04-09T21:54:12.639Z,99807.31
2023-04-09T21:56:55.419Z,99803.64
2023-04-09T21:59:38.122Z,99805.02
2023-04-09T22:02:14.057Z,99803.39
2023-04-09T22:04:46.748Z,99805.63
2023-04-09T22:07:30.679Z,99805.41
2023-04-09T22:10:03.346Z,99806.30
2023-04-09T22:12:38.761Z,99805.65
2023-04-09T22:15:13.308Z,99803.42
2023-04-09T22:17:53.137Z,99805.52
2023-04-09T22:20:29.366Z,99806.73
2023-04-09T22:23:08.938Z,99804.86
2023-04-09T22:25:41.662Z,99803.99
2023-04-09T22:28:18.155Z,99804.60
2023-04-09T22:30:53.425Z,99802.59
2023-04-09T22:33:27.907Z,99801.27
2023-04-09T22:36:12.292Z,99799.80
2023-04-09T22:38:55.877Z,99799.84
2023-04-09T22:41:31.012Z,99800.63
2023-04-09T22:44:03.839Z,99801.09
2023-04-09T22:46:36.715Z,99799.01
2023-04-09T22:49:09.979Z,99799.17
2023-04-09T22:51:43.932Z,99799.13
2023-04-09T22:54:26.429Z,99798.84
2023-04-09T22:56:59.128Z,99800.77
2023-04-09T23:02:14.724Z,99795.44
2023-04-09T23:04:50.342Z,99794.52
2023-04-09T23:07:33.447Z,99791.98
2023-04-09T23:10:14.211Z,99797.65
2023-04-09T23:12:46.659Z,99793.38
2023-04-09T23:15:19.798Z,99790.17
2023-04-09T23:17:55.650Z,99787.64
2023-04-09T23:20:30.583Z,99786.98
2023-04-09T23:23:06.870Z,99786.76
2023-04-09T23:25:39.704Z,99787.74
2023-04-09T23:28:23.488Z,99784.27
2023-04-09T23:31:05.848Z,99783.42
2023-04-09T23:33:38.449Z,99783.98
2023-04-09T23:36:11.693Z,99783.67
2023-04-09T23:38:59.012Z,99781.61
2023-04-09T23:41:41.694Z,99777.48
2023-04-09T23:44:34.894Z,99777.35
2023-04-09T23:47:12.016Z,99774.55
2023-04-09T23:49:54.789Z,99772.09
2023-04-09T23:52:52.557Z,99769.36
2023-04-09T23:55:28.650Z,99761.28
2023-04-09T23:58:01.754Z,99760.44
